sensor_id;sensor_type;location;lat;lon;timestamp;pressure;altitude;pressure_sealevel;temperature;humidity
59391;BME280;53405;57.012;40.984;2023-04-28T00:01:13;99808.28;;;12.05;74.16
59391;BME280;53405;57.012;40.984;2023-04-28T00:03:41;99806.84;;;11.81;74.45
59391;BME280;53405;57.012;40.984;2023-04-28T00:06:09;99794.25;;;11.55;75.22
59391;BME280;53405;57.012;40.984;2023-04-28T00:08:37;99796.25;;;11.53;76.22
59391;BME280;53405;57.012;40.984;2023-04-28T00:11:10;99788.34;;;11.53;76.17
59391;BME280;53405;57.012;40.984;2023-04-28T00:13:38;99807.75;;;11.67;76.20
59391;BME280;53405;57.012;40.984;2023-04-28T00:16:06;99801.91;;;11.71;75.62
59391;BME280;53405;57.012;40.984;2023-04-28T00:18:33;99813.47;;;11.70;75.44
59391;BME280;53405;57.012;40.984;2023-04-28T00:21:01;99813.41;;;11.64;75.31
59391;BME280;53405;57.012;40.984;2023-04-28T00:23:29;99816.84;;;11.64;75.47
59391;BME280;53405;57.012;40.984;2023-04-28T00:25:57;99814.03;;;11.66;75.65
59391;BME280;53405;57.012;40.984;2023-04-28T00:28:24;99815.97;;;11.57;75.61
59391;BME280;53405;57.012;40.984;2023-04-28T00:30:59;99810.69;;;11.35;76.29
59391;BME280;53405;57.012;40.984;2023-04-28T00:33:27;99813.53;;;11.34;76.83
59391;BME280;53405;57.012;40.984;2023-04-28T00:35:58;99811.81;;;11.26;76.62
59391;BME280;53405;57.012;40.984;2023-04-28T00:38:27;99794.72;;;11.22;77.04
59391;BME280;53405;57.012;40.984;2023-04-28T00:40:55;99813.78;;;11.39;76.84
59391;BME280;53405;57.012;40.984;2023-04-28T00:43:22;99807.56;;;11.47;76.89
59391;BME280;53405;57.012;40.984;2023-04-28T00:45:50;99802.66;;;11.44;75.82
59391;BME280;53405;57.012;40.984;2023-04-28T00:48:18;99808.16;;;11.27;76.51
59391;BME280;53405;57.012;40.984;2023-04-28T00:50:47;99800.69;;;11.09;77.12
59391;BME280;53405;57.012;40.984;2023-04-28T00:53:14;99811.78;;;11.05;77.51
59391;BME280;53405;57.012;40.984;2023-04-28T00:55:42;99815.06;;;10.92;77.92
59391;BME280;53405;57.012;40.984;2023-04-28T00:58:11;99806.63;;;10.81;78.55
59391;BME280;53405;57.012;40.984;2023-04-28T01:00:39;99804.94;;;10.74;78.58
59391;BME280;53405;57.012;40.984;2023-04-28T01:03:07;99807.00;;;10.63;79.21
59391;BME280;53405;57.012;40.984;2023-04-28T01:05:35;99784.78;;;10.51;79.30
59391;BME280;53405;57.012;40.984;2023-04-28T01:08:03;99798.38;;;10.55;79.23
59391;BME280;53405;57.012;40.984;2023-04-28T01:10:32;99804.75;;;10.60;79.73
59391;BME280;53405;57.012;40.984;2023-04-28T01:13:06;99812.09;;;10.65;79.52
59391;BME280;53405;57.012;40.984;2023-04-28T01:15:34;99802.19;;;10.67;79.53
59391;BME280;53405;57.012;40.984;2023-04-28T01:18:02;99816.94;;;10.61;79.49
59391;BME280;53405;57.012;40.984;2023-04-28T01:20:30;99819.44;;;10.55;79.71
59391;BME280;53405;57.012;40.984;2023-04-28T01:22:58;99805.47;;;10.54;80.14
59391;BME280;53405;57.012;40.984;2023-04-28T01:25:25;99809.38;;;10.43;80.21
59391;BME280;53405;57.012;40.984;2023-04-28T01:27:53;99813.91;;;10.35;80.82
59391;BME280;53405;57.012;40.984;2023-04-28T01:30:21;99811.97;;;10.28;81.02
59391;BME280;53405;57.012;40.984;2023-04-28T01:32:51;99808.41;;;10.21;81.40
59391;BME280;53405;57.012;40.984;2023-04-28T01:35:19;99816.03;;;10.16;81.77
59391;BME280;53405;57.012;40.984;2023-04-28T01:37:48;99808.88;;;10.10;82.30
59391;BME280;53405;57.012;40.984;2023-04-28T01:40:15;99803.31;;;10.05;82.81
59391;BME280;53405;57.012;40.984;2023-04-28T01:42:43;99806.13;;;10.03;82.90
59391;BME280;53405;57.012;40.984;2023-04-28T01:45:10;99805.69;;;10.00;83.06
59391;BME280;53405;57.012;40.984;2023-04-28T01:47:38;99797.97;;;9.98;83.16
59391;BME280;53405;57.012;40.984;2023-04-28T01:50:06;99797.88;;;10.06;83.38
59391;BME280;53405;57.012;40.984;2023-04-28T01:52:35;99804.34;;;10.19;83.07
59391;BME280;53405;57.012;40.984;2023-04-28T01:55:03;99799.97;;;10.11;82.81
59391;BME280;53405;57.012;40.984;2023-04-28T01:57:31;99810.16;;;10.14;83.02
59391;BME280;53405;57.012;40.984;2023-04-28T02:00:02;99824.28;;;10.13;83.17
59391;BME280;53405;57.012;40.984;2023-04-28T02:02:34;99816.03;;;10.16;83.14
59391;BME280;53405;57.012;40.984;2023-04-28T02:05:04;99794.38;;;10.14;83.18
59391;BME280;53405;57.012;40.984;2023-04-28T02:07:31;99811.47;;;10.33;82.42
59391;BME280;53405;57.012;40.984;2023-04-28T02:09:59;99818.03;;;10.29;82.55
59391;BME280;53405;57.012;40.984;2023-04-28T02:12:30;99816.56;;;10.35;82.34
59391;BME280;53405;57.012;40.984;2023-04-28T02:14:58;99812.16;;;10.27;82.77
59391;BME280;53405;57.012;40.984;2023-04-28T02:17:31;99817.97;;;10.22;82.84
59391;BME280;53405;57.012;40.984;2023-04-28T02:20:02;99805.91;;;10.28;82.76
59391;BME280;53405;57.012;40.984;2023-04-28T02:22:31;99812.50;;;10.24;82.86
59391;BME280;53405;57.012;40.984;2023-04-28T02:24:59;99808.78;;;10.18;83.25
59391;BME280;53405;57.012;40.984;2023-04-28T02:27:30;99819.03;;;10.13;83.50
59391;BME280;53405;57.012;40.984;2023-04-28T02:29:57;99822.06;;;10.25;83.49
59391;BME280;53405;57.012;40.984;2023-04-28T02:32:26;99828.88;;;10.34;83.54
59391;BME280;53405;57.012;40.984;2023-04-28T02:34:54;99822.34;;;10.45;82.94
59391;BME280;53405;57.012;40.984;2023-04-28T02:37:23;99803.72;;;10.31;82.56
59391;BME280;53405;57.012;40.984;2023-04-28T02:39:50;99831.63;;;10.56;82.68
59391;BME280;53405;57.012;40.984;2023-04-28T02:42:20;99832.81;;;10.68;82.27
59391;BME280;53405;57.012;40.984;2023-04-28T02:44:47;99828.88;;;10.64;81.85
59391;BME280;53405;57.012;40.984;2023-04-28T02:47:15;99841.78;;;10.59;82.10
59391;BME280;53405;57.012;40.984;2023-04-28T02:49:43;99835.47;;;10.53;82.49
59391;BME280;53405;57.012;40.984;2023-04-28T02:52:11;99836.09;;;10.55;82.49
59391;BME280;53405;57.012;40.984;2023-04-28T02:54:39;99836.78;;;10.64;82.58
59391;BME280;53405;57.012;40.984;2023-04-28T02:57:07;99842.72;;;10.66;82.48
59391;BME280;53405;57.012;40.984;2023-04-28T02:59:34;99816.09;;;10.61;82.51
59391;BME280;53405;57.012;40.984;2023-04-28T03:02:02;99841.53;;;10.83;81.80
59391;BME280;53405;57.012;40.984;2023-04-28T03:04:30;99849.97;;;10.79;82.32
59391;BME280;53405;57.012;40.984;2023-04-28T03:06:58;99839.78;;;10.91;81.57
59391;BME280;53405;57.012;40.984;2023-04-28T03:09:28;99846.22;;;11.03;80.79
59391;BME280;53405;57.012;40.984;2023-04-28T03:11:55;99842.50;;;10.97;80.53
59391;BME280;53405;57.012;40.984;2023-04-28T03:14:23;99852.88;;;10.99;80.90
59391;BME280;53405;57.012;40.984;2023-04-28T03:16:51;99838.66;;;11.00;80.86
59391;BME280;53405;57.012;40.984;2023-04-28T03:19:18;99848.94;;;10.95;81.21
59391;BME280;53405;57.012;40.984;2023-04-28T03:21:46;99850.41;;;10.97;81.36
59391;BME280;53405;57.012;40.984;2023-04-28T03:24:14;99854.94;;;11.03;81.46
59391;BME280;53405;57.012;40.984;2023-04-28T03:26:43;99858.47;;;11.11;81.47
59391;BME280;53405;57.012;40.984;2023-04-28T03:29:11;99851.66;;;11.16;81.92
59391;BME280;53405;57.012;40.984;2023-04-28T03:31:38;99855.59;;;11.27;80.84
59391;BME280;53405;57.012;40.984;2023-04-28T03:34:06;99859.06;;;11.28;79.76
59391;BME280;53405;57.012;40.984;2023-04-28T03:36:35;99863.69;;;11.26;80.32
59391;BME280;53405;57.012;40.984;2023-04-28T03:39:09;99851.66;;;11.16;80.80
59391;BME280;53405;57.012;40.984;2023-04-28T03:41:37;99861.09;;;11.47;80.14
59391;BME280;53405;57.012;40.984;2023-04-28T03:44:31;99862.69;;;11.63;79.46
59391;BME280;53405;57.012;40.984;2023-04-28T03:46:59;99857.88;;;11.67;79.39
59391;BME280;53405;57.012;40.984;2023-04-28T03:49:29;99862.88;;;11.83;78.60
59391;BME280;53405;57.012;40.984;2023-04-28T03:51:57;99858.03;;;11.87;78.33
59391;BME280;53405;57.012;40.984;2023-04-28T03:54:25;99854.25;;;11.74;77.96
59391;BME280;53405;57.012;40.984;2023-04-28T03:56:53;99854.84;;;11.70;78.43
59391;BME280;53405;57.012;40.984;2023-04-28T03:59:20;99854.41;;;11.66;78.26
59391;BME280;53405;57.012;40.984;2023-04-28T04:01:48;99864.25;;;11.79;79.18
59391;BME280;53405;57.012;40.984;2023-04-28T04:04:16;99874.03;;;12.00;79.11
59391;BME280;53405;57.012;40.984;2023-04-28T04:06:44;99867.03;;;12.14;77.46
59391;BME280;53405;57.012;40.984;2023-04-28T04:09:14;99860.47;;;12.32;77.78
59391;BME280;53405;57.012;40.984;2023-04-28T04:11:42;99867.66;;;12.44;77.62
59391;BME280;53405;57.012;40.984;2023-04-28T04:14:10;99865.97;;;12.65;76.37
59391;BME280;53405;57.012;40.984;2023-04-28T04:16:38;99864.16;;;12.72;75.67
59391;BME280;53405;57.012;40.984;2023-04-28T04:19:06;99864.66;;;12.89;75.22
59391;BME280;53405;57.012;40.984;2023-04-28T04:21:41;99867.41;;;13.09;74.80
59391;BME280;53405;57.012;40.984;2023-04-28T04:24:10;99857.81;;;13.01;73.92
59391;BME280;53405;57.012;40.984;2023-04-28T04:26:37;99867.22;;;13.17;73.11
59391;BME280;53405;57.012;40.984;2023-04-28T04:29:22;99843.22;;;13.12;73.13
59391;BME280;53405;57.012;40.984;2023-04-28T04:31:50;99861.44;;;13.35;72.89
59391;BME280;53405;57.012;40.984;2023-04-28T04:34:18;99861.63;;;13.41;72.47
59391;BME280;53405;57.012;40.984;2023-04-28T04:36:46;99859.78;;;13.41;73.11
59391;BME280;53405;57.012;40.984;2023-04-28T04:39:14;99859.44;;;13.58;72.17
59391;BME280;53405;57.012;40.984;2023-04-28T04:41:41;99865.97;;;13.75;70.39
59391;BME280;53405;57.012;40.984;2023-04-28T04:44:47;99872.47;;;13.72;70.86
59391;BME280;53405;57.012;40.984;2023-04-28T04:47:26;99870.06;;;13.84;70.86
59391;BME280;53405;57.012;40.984;2023-04-28T04:49:54;99864.97;;;13.89;70.77
59391;BME280;53405;57.012;40.984;2023-04-28T04:52:22;99857.03;;;14.03;69.54
59391;BME280;53405;57.012;40.984;2023-04-28T04:54:50;99847.66;;;13.94;70.11
59391;BME280;53405;57.012;40.984;2023-04-28T04:57:18;99828.31;;;14.00;68.88
59391;BME280;53405;57.012;40.984;2023-04-28T05:00:02;99856.22;;;14.29;69.05
59391;BME280;53405;57.012;40.984;2023-04-28T05:02:34;99865.16;;;14.41;68.58
59391;BME280;53405;57.012;40.984;2023-04-28T05:05:04;99865.75;;;14.50;68.96
59391;BME280;53405;57.012;40.984;2023-04-28T05:07:40;99865.56;;;14.65;68.92
59391;BME280;53405;57.012;40.984;2023-04-28T05:10:08;99850.47;;;14.66;68.08
59391;BME280;53405;57.012;40.984;2023-04-28T05:12:38;99850.03;;;14.82;65.65
59391;BME280;53405;57.012;40.984;2023-04-28T05:15:06;99856.31;;;14.88;65.73
59391;BME280;53405;57.012;40.984;2023-04-28T05:17:38;99849.97;;;14.95;66.23
59391;BME280;53405;57.012;40.984;2023-04-28T05:20:07;99860.50;;;15.15;65.35
59391;BME280;53405;57.012;40.984;2023-04-28T05:22:34;99858.22;;;15.19;64.98
59391;BME280;53405;57.012;40.984;2023-04-28T05:25:02;99859.56;;;15.35;65.22
59391;BME280;53405;57.012;40.984;2023-04-28T05:27:31;99853.81;;;15.45;64.42
59391;BME280;53405;57.012;40.984;2023-04-28T05:29:58;99821.63;;;15.34;64.17
59391;BME280;53405;57.012;40.984;2023-04-28T05:32:27;99843.28;;;15.63;64.29
59391;BME280;53405;57.012;40.984;2023-04-28T05:34:55;99841.19;;;15.72;63.77
59391;BME280;53405;57.012;40.984;2023-04-28T05:37:23;99836.97;;;15.58;63.91
59391;BME280;53405;57.012;40.984;2023-04-28T05:39:50;99840.25;;;15.60;64.15
59391;BME280;53405;57.012;40.984;2023-04-28T05:42:18;99849.97;;;15.72;64.12
59391;BME280;53405;57.012;40.984;2023-04-28T05:44:45;99832.19;;;15.80;64.25
59391;BME280;53405;57.012;40.984;2023-04-28T05:47:14;99845.00;;;16.08;63.61
59391;BME280;53405;57.012;40.984;2023-04-28T05:49:41;99845.41;;;16.30;63.11
59391;BME280;53405;57.012;40.984;2023-04-28T05:52:10;99838.56;;;16.41;61.69
59391;BME280;53405;57.012;40.984;2023-04-28T05:54:38;99836.00;;;16.53;61.42
59391;BME280;53405;57.012;40.984;2023-04-28T05:57:05;99838.06;;;16.69;61.18
59391;BME280;53405;57.012;40.984;2023-04-28T05:59:33;99837.53;;;16.79;60.67
59391;BME280;53405;57.012;40.984;2023-04-28T06:02:01;99845.47;;;17.04;59.87
59391;BME280;53405;57.012;40.984;2023-04-28T06:04:29;99847.75;;;17.19;59.80
59391;BME280;53405;57.012;40.984;2023-04-28T06:06:57;99843.97;;;17.27;59.11
59391;BME280;53405;57.012;40.984;2023-04-28T06:09:27;99843.09;;;17.45;57.60
59391;BME280;53405;57.012;40.984;2023-04-28T06:11:56;99839.41;;;17.58;56.44
59391;BME280;53405;57.012;40.984;2023-04-28T06:14:25;99830.78;;;17.74;56.75
59391;BME280;53405;57.012;40.984;2023-04-28T06:16:52;99837.56;;;17.88;56.50
59391;BME280;53405;57.012;40.984;2023-04-28T06:19:21;99845.88;;;17.92;56.49
59391;BME280;53405;57.012;40.984;2023-04-28T06:21:49;99846.72;;;18.04;56.48
59391;BME280;53405;57.012;40.984;2023-04-28T06:24:19;99845.22;;;18.20;56.45
59391;BME280;53405;57.012;40.984;2023-04-28T06:26:48;99840.81;;;18.50;53.59
59391;BME280;53405;57.012;40.984;2023-04-28T06:29:15;99840.41;;;18.70;52.31
59391;BME280;53405;57.012;40.984;2023-04-28T06:31:44;99833.81;;;18.72;51.94
59391;BME280;53405;57.012;40.984;2023-04-28T06:34:12;99837.03;;;18.74;52.74
59391;BME280;53405;57.012;40.984;2023-04-28T06:36:40;99838.75;;;18.81;51.89
59391;BME280;53405;57.012;40.984;2023-04-28T06:39:09;99843.97;;;18.99;52.37
59391;BME280;53405;57.012;40.984;2023-04-28T06:41:37;99854.66;;;18.99;51.63
59391;BME280;53405;57.012;40.984;2023-04-28T06:44:05;99851.41;;;18.97;51.24
59391;BME280;53405;57.012;40.984;2023-04-28T06:46:35;99850.00;;;19.06;51.50
59391;BME280;53405;57.012;40.984;2023-04-28T06:49:04;99846.66;;;19.28;51.78
59391;BME280;53405;57.012;40.984;2023-04-28T06:51:31;99840.56;;;19.44;51.81
59391;BME280;53405;57.012;40.984;2023-04-28T06:53:59;99840.59;;;19.61;51.83
59391;BME280;53405;57.012;40.984;2023-04-28T06:56:27;99829.72;;;19.68;50.65
59391;BME280;53405;57.012;40.984;2023-04-28T06:58:56;99847.00;;;19.94;49.51
59391;BME280;53405;57.012;40.984;2023-04-28T07:01:24;99840.44;;;20.02;48.13
59391;BME280;53405;57.012;40.984;2023-04-28T07:03:51;99847.31;;;20.15;47.99
59391;BME280;53405;57.012;40.984;2023-04-28T07:06:19;99847.78;;;20.12;48.22
59391;BME280;53405;57.012;40.984;2023-04-28T07:08:47;99847.97;;;20.22;46.91
59391;BME280;53405;57.012;40.984;2023-04-28T07:11:14;99817.53;;;20.06;47.07
59391;BME280;53405;57.012;40.984;2023-04-28T07:13:43;99844.09;;;20.13;46.99
59391;BME280;53405;57.012;40.984;2023-04-28T07:16:12;99852.09;;;20.30;47.13
59391;BME280;53405;57.012;40.984;2023-04-28T07:18:40;99858.03;;;20.54;47.38
59391;BME280;53405;57.012;40.984;2023-04-28T07:21:07;99843.41;;;20.79;47.89
59391;BME280;53405;57.012;40.984;2023-04-28T07:23:36;99822.09;;;20.89;47.06
59391;BME280;53405;57.012;40.984;2023-04-28T07:26:05;99850.97;;;21.09;47.44
59391;BME280;53405;57.012;40.984;2023-04-28T07:28:32;99847.53;;;21.14;45.66
59391;BME280;53405;57.012;40.984;2023-04-28T07:31:00;99852.16;;;21.18;45.94
59391;BME280;53405;57.012;40.984;2023-04-28T07:33:32;99851.44;;;21.01;46.14
59391;BME280;53405;57.012;40.984;2023-04-28T07:36:07;99862.44;;;20.82;46.26
59391;BME280;53405;57.012;40.984;2023-04-28T07:38:35;99855.16;;;20.78;45.75
59391;BME280;53405;57.012;40.984;2023-04-28T07:41:03;99848.22;;;20.60;47.02
59391;BME280;53405;57.012;40.984;2023-04-28T07:43:31;99859.34;;;20.51;46.70
59391;BME280;53405;57.012;40.984;2023-04-28T07:45:59;99855.84;;;20.51;46.28
59391;BME280;53405;57.012;40.984;2023-04-28T07:48:26;99850.75;;;20.49;47.15
59391;BME280;53405;57.012;40.984;2023-04-28T07:50:55;99850.69;;;20.44;47.22
59391;BME280;53405;57.012;40.984;2023-04-28T07:53:22;99852.25;;;20.23;47.26
59391;BME280;53405;57.012;40.984;2023-04-28T07:55:50;99858.50;;;20.12;48.69
59391;BME280;53405;57.012;40.984;2023-04-28T07:58:18;99855.56;;;20.13;48.65
59391;BME280;53405;57.012;40.984;2023-04-28T08:00:46;99851.63;;;19.99;48.32
59391;BME280;53405;57.012;40.984;2023-04-28T08:03:15;99864.97;;;20.16;48.11
59391;BME280;53405;57.012;40.984;2023-04-28T08:05:42;99842.91;;;19.87;47.56
59391;BME280;53405;57.012;40.984;2023-04-28T08:08:11;99860.03;;;20.25;46.52
59391;BME280;53405;57.012;40.984;2023-04-28T08:10:39;99865.03;;;20.21;47.24
59391;BME280;53405;57.012;40.984;2023-04-28T08:13:08;99858.22;;;20.30;48.23
59391;BME280;53405;57.012;40.984;2023-04-28T08:16:00;99863.03;;;20.11;48.55
59391;BME280;53405;57.012;40.984;2023-04-28T08:18:31;99850.56;;;20.17;49.12
59391;BME280;53405;57.012;40.984;2023-04-28T08:20:59;99868.13;;;20.13;49.37
59391;BME280;53405;57.012;40.984;2023-04-28T08:23:27;99860.66;;;20.32;49.42
59391;BME280;53405;57.012;40.984;2023-04-28T08:25:57;99857.28;;;20.58;48.22
59391;BME280;53405;57.012;40.984;2023-04-28T08:28:26;99852.75;;;20.59;45.79
59391;BME280;53405;57.012;40.984;2023-04-28T08:30:54;99851.47;;;20.45;45.29
59391;BME280;53405;57.012;40.984;2023-04-28T08:33:23;99844.09;;;20.52;45.63
59391;BME280;53405;57.012;40.984;2023-04-28T08:35:51;99835.09;;;20.58;46.84
59391;BME280;53405;57.012;40.984;2023-04-28T08:38:18;99837.03;;;20.63;45.35
59391;BME280;53405;57.012;40.984;2023-04-28T08:40:46;99842.22;;;20.69;45.68
59391;BME280;53405;57.012;40.984;2023-04-28T08:43:14;99842.41;;;20.85;45.38
59391;BME280;53405;57.012;40.984;2023-04-28T08:45:42;99813.31;;;21.43;44.28
59391;BME280;53405;57.012;40.984;2023-04-28T08:48:19;99829.22;;;22.25;42.48
59391;BME280;53405;57.012;40.984;2023-04-28T08:50:52;99823.34;;;22.86;39.15
59391;BME280;53405;57.012;40.984;2023-04-28T08:53:24;99827.00;;;23.27;40.34
59391;BME280;53405;57.012;40.984;2023-04-28T08:55:56;99829.41;;;23.29;38.31
59391;BME280;53405;57.012;40.984;2023-04-28T08:58:26;99823.25;;;23.59;37.35
59391;BME280;53405;57.012;40.984;2023-04-28T09:00:53;99828.28;;;22.46;39.68
59391;BME280;53405;57.012;40.984;2023-04-28T09:03:22;99816.28;;;22.16;40.85
59391;BME280;53405;57.012;40.984;2023-04-28T09:05:50;99808.75;;;22.56;39.89
59391;BME280;53405;57.012;40.984;2023-04-28T09:08:17;99801.88;;;22.81;41.20
59391;BME280;53405;57.012;40.984;2023-04-28T09:10:45;99818.19;;;23.89;38.52
59391;BME280;53405;57.012;40.984;2023-04-28T09:13:24;99811.03;;;24.60;35.35
59391;BME280;53405;57.012;40.984;2023-04-28T09:15:55;99815.34;;;24.50;36.09
59391;BME280;53405;57.012;40.984;2023-04-28T09:18:25;99815.59;;;24.64;35.73
59391;BME280;53405;57.012;40.984;2023-04-28T09:21:05;99805.25;;;24.06;36.90
59391;BME280;53405;57.012;40.984;2023-04-28T09:23:46;99815.16;;;23.18;39.66
59391;BME280;53405;57.012;40.984;2023-04-28T09:26:18;99805.19;;;22.40;39.54
59391;BME280;53405;57.012;40.984;2023-04-28T09:28:46;99807.72;;;22.19;40.62
59391;BME280;53405;57.012;40.984;2023-04-28T09:31:24;99807.13;;;21.70;40.72
59391;BME280;53405;57.012;40.984;2023-04-28T09:33:57;99805.75;;;21.67;40.03
59391;BME280;53405;57.012;40.984;2023-04-28T09:36:26;99801.84;;;21.47;42.00
59391;BME280;53405;57.012;40.984;2023-04-28T09:38:57;99796.16;;;21.44;42.37
59391;BME280;53405;57.012;40.984;2023-04-28T09:41:38;99799.75;;;21.55;42.37
59391;BME280;53405;57.012;40.984;2023-04-28T09:44:13;99794.75;;;22.01;41.50
59391;BME280;53405;57.012;40.984;2023-04-28T09:46:42;99790.53;;;22.63;39.86
59391;BME280;53405;57.012;40.984;2023-04-28T09:49:11;99788.63;;;22.59;41.06
59391;BME280;53405;57.012;40.984;2023-04-28T09:51:40;99768.34;;;22.88;39.56
59391;BME280;53405;57.012;40.984;2023-04-28T09:54:07;99792.88;;;24.05;37.00
59391;BME280;53405;57.012;40.984;2023-04-28T09:56:35;99790.84;;;24.47;37.75
59391;BME280;53405;57.012;40.984;2023-04-28T10:02:25;99766.06;;;24.50;37.33
59391;BME280;53405;57.012;40.984;2023-04-28T10:04:55;99789.75;;;25.13;36.46
59391;BME280;53405;57.012;40.984;2023-04-28T10:07:25;99789.66;;;25.63;34.39
59391;BME280;53405;57.012;40.984;2023-04-28T10:09:54;99784.25;;;24.84;35.60
59391;BME280;53405;57.012;40.984;2023-04-28T10:12:23;99778.09;;;23.97;37.01
59391;BME280;53405;57.012;40.984;2023-04-28T10:14:51;99779.16;;;23.14;39.66
59391;BME280;53405;57.012;40.984;2023-04-28T10:17:21;99785.22;;;22.79;39.20
59391;BME280;53405;57.012;40.984;2023-04-28T10:19:52;99784.25;;;22.37;40.88
59391;BME280;53405;57.012;40.984;2023-04-28T10:27:42;99785.13;;;22.53;39.37
59391;BME280;53405;57.012;40.984;2023-04-28T10:35:46;99780.09;;;21.71;40.83
59391;BME280;53405;57.012;40.984;2023-04-28T10:38:15;99767.19;;;21.68;41.19
59391;BME280;53405;57.012;40.984;2023-04-28T10:40:45;99758.91;;;21.70;41.12
59391;BME280;53405;57.012;40.984;2023-04-28T10:43:32;99767.41;;;21.61;42.32
59391;BME280;53405;57.012;40.984;2023-04-28T10:46:01;99771.31;;;21.81;42.86
59391;BME280;53405;57.012;40.984;2023-04-28T10:56:23;99769.59;;;22.65;40.35
59391;BME280;53405;57.012;40.984;2023-04-28T10:58:59;99751.28;;;22.42;40.67
59391;BME280;53405;57.012;40.984;2023-04-28T11:01:28;99725.09;;;22.06;41.78
59391;BME280;53405;57.012;40.984;2023-04-28T11:04:01;99769.50;;;22.40;41.39
59391;BME280;53405;57.012;40.984;2023-04-28T11:06:34;99764.41;;;22.38;41.18
59391;BME280;53405;57.012;40.984;2023-04-28T11:14:30;99758.91;;;21.70;42.52
59391;BME280;53405;57.012;40.984;2023-04-28T11:19:37;99762.88;;;21.35;44.03
59391;BME280;53405;57.012;40.984;2023-04-28T11:22:15;99779.28;;;20.89;51.07
59391;BME280;53405;57.012;40.984;2023-04-28T11:25:01;99784.00;;;20.15;56.53
59391;BME280;53405;57.012;40.984;2023-04-28T11:27:32;99782.91;;;19.77;57.59
59391;BME280;53405;57.012;40.984;2023-04-28T11:30:01;99763.59;;;19.41;56.42
59391;BME280;53405;57.012;40.984;2023-04-28T11:32:34;99769.81;;;19.47;58.05
59391;BME280;53405;57.012;40.984;2023-04-28T11:35:03;99767.47;;;19.34;58.94
59391;BME280;53405;57.012;40.984;2023-04-28T11:37:32;99757.03;;;19.32;60.77
59391;BME280;53405;57.012;40.984;2023-04-28T11:40:12;99769.34;;;19.67;59.90
59391;BME280;53405;57.012;40.984;2023-04-28T11:42:47;99768.47;;;19.61;60.54
59391;BME280;53405;57.012;40.984;2023-04-28T11:45:15;99758.50;;;19.74;58.10
59391;BME280;53405;57.012;40.984;2023-04-28T11:47:44;99759.06;;;19.76;55.66
59391;BME280;53405;57.012;40.984;2023-04-28T11:50:11;99766.34;;;19.97;53.66
59391;BME280;53405;57.012;40.984;2023-04-28T11:52:48;99754.94;;;20.02;53.06
59391;BME280;53405;57.012;40.984;2023-04-28T11:55:17;99765.41;;;20.48;51.28
59391;BME280;53405;57.012;40.984;2023-04-28T11:57:44;99753.59;;;20.88;50.91
59391;BME280;53405;57.012;40.984;2023-04-28T12:00:13;99753.59;;;21.15;51.32
59391;BME280;53405;57.012;40.984;2023-04-28T12:02:45;99747.97;;;21.76;49.04
59391;BME280;53405;57.012;40.984;2023-04-28T12:05:13;99741.81;;;21.76;47.37
59391;BME280;53405;57.012;40.984;2023-04-28T12:07:42;99735.47;;;21.55;48.01
59391;BME280;53405;57.012;40.984;2023-04-28T12:10:14;99730.72;;;21.62;45.63
59391;BME280;53405;57.012;40.984;2023-04-28T12:12:43;99722.81;;;22.30;44.47
59391;BME280;53405;57.012;40.984;2023-04-28T12:15:16;99728.41;;;23.18;44.37
59391;BME280;53405;57.012;40.984;2023-04-28T12:17:46;99716.44;;;24.16;41.52
59391;BME280;53405;57.012;40.984;2023-04-28T12:20:35;99693.41;;;24.60;39.31
59391;BME280;53405;57.012;40.984;2023-04-28T12:23:04;99712.44;;;24.74;40.61
59391;BME280;53405;57.012;40.984;2023-04-28T12:25:32;99716.16;;;24.78;39.41
59391;BME280;53405;57.012;40.984;2023-04-28T12:28:09;99711.63;;;25.48;39.07
59391;BME280;53405;57.012;40.984;2023-04-28T12:30:38;99697.25;;;25.57;39.17
59391;BME280;53405;57.012;40.984;2023-04-28T12:33:27;99706.09;;;25.87;35.94
59391;BME280;53405;57.012;40.984;2023-04-28T12:35:56;99713.88;;;25.94;36.25
59391;BME280;53405;57.012;40.984;2023-04-28T12:38:25;99707.25;;;25.81;35.98
59391;BME280;53405;57.012;40.984;2023-04-28T12:40:53;99701.25;;;25.60;37.74
59391;BME280;53405;57.012;40.984;2023-04-28T12:43:22;99706.53;;;25.12;39.19
59391;BME280;53405;57.012;40.984;2023-04-28T12:45:51;99706.34;;;24.58;38.65
59391;BME280;53405;57.012;40.984;2023-04-28T12:48:23;99705.09;;;24.30;39.25
59391;BME280;53405;57.012;40.984;2023-04-28T12:50:51;99699.88;;;23.73;40.26
59391;BME280;53405;57.012;40.984;2023-04-28T12:53:20;99695.66;;;23.26;40.93
59391;BME280;53405;57.012;40.984;2023-04-28T12:55:47;99694.81;;;23.25;40.02
59391;BME280;53405;57.012;40.984;2023-04-28T12:58:15;99688.63;;;23.45;39.40
59391;BME280;53405;57.012;40.984;2023-04-28T13:00:44;99687.00;;;23.86;37.77
59391;BME280;53405;57.012;40.984;2023-04-28T13:03:12;99693.16;;;23.86;39.23
59391;BME280;53405;57.012;40.984;2023-04-28T13:05:39;99685.88;;;23.87;40.75
59391;BME280;53405;57.012;40.984;2023-04-28T13:08:08;99679.44;;;23.83;37.52
59391;BME280;53405;57.012;40.984;2023-04-28T13:10:35;99678.91;;;23.91;37.96
59391;BME280;53405;57.012;40.984;2023-04-28T13:13:03;99682.38;;;23.76;38.76
59391;BME280;53405;57.012;40.984;2023-04-28T13:15:37;99668.44;;;23.74;39.24
59391;BME280;53405;57.012;40.984;2023-04-28T13:18:05;99661.22;;;23.59;39.04
59391;BME280;53405;57.012;40.984;2023-04-28T13:20:33;99664.72;;;23.49;39.09
59391;BME280;53405;57.012;40.984;2023-04-28T13:23:01;99666.63;;;23.23;38.21
59391;BME280;53405;57.012;40.984;2023-04-28T13:25:29;99650.47;;;22.77;39.09
59391;BME280;53405;57.012;40.984;2023-04-28T13:27:57;99673.31;;;22.74;39.87
59391;BME280;53405;57.012;40.984;2023-04-28T13:30:24;99681.56;;;22.52;39.11
59391;BME280;53405;57.012;40.984;2023-04-28T13:32:53;99677.38;;;22.13;40.74